LHX2PL EDDL-EDDF
Flight info
| Callsign | LHX2PL |
|---|---|
| Flight time | 0h 32m |
| Altitude | 23000 |
| Route | COL5Z COL T911 ROLIS ROLIS5A |
| Aircraft | A20N/M-SDE2E3FGHIRWXY/LB1 |
Departure
| Time | 2026-05-07 17:56 |
|---|---|
| Airport | Düsseldorf Airport (EDDL) |
Arrival
| Time | 2026-05-07 18:28 |
|---|---|
| Airport | Frankfurt Main Airport (EDDF) |
| Time | Latitude | Longitude | Altitude | Speed | Heading |
|---|---|---|---|---|---|
| 2026-05-07 17:17 | 51.28205 | 6.76739 | 131 ft | 0 kts | 275° |
| 2026-05-07 17:43 | 51.28205 | 6.76741 | 131 ft | 1 kts | 275° |
| 2026-05-07 17:43 | 51.28204 | 6.76764 | 131 ft | 2 kts | 280° |
| 2026-05-07 17:43 | 51.28199 | 6.76786 | 132 ft | 2 kts | 299° |
| 2026-05-07 17:44 | 51.28191 | 6.76806 | 132 ft | 2 kts | 315° |
| 2026-05-07 17:44 | 51.28179 | 6.76821 | 133 ft | 2 kts | 331° |
| 2026-05-07 17:44 | 51.28169 | 6.76828 | 133 ft | 2 kts | 342° |
| 2026-05-07 17:44 | 51.28155 | 6.76832 | 133 ft | 2 kts | 358° |
| 2026-05-07 17:45 | 51.28146 | 6.76832 | 134 ft | 1 kts | 7° |
| 2026-05-07 17:45 | 51.28142 | 6.76831 | 134 ft | 0 kts | 7° |
| 2026-05-07 17:48 | 51.28160 | 6.76835 | 133 ft | 4 kts | 7° |
| 2026-05-07 17:49 | 51.28198 | 6.76842 | 132 ft | 6 kts | 7° |
| 2026-05-07 17:49 | 51.28257 | 6.76848 | 130 ft | 10 kts | 350° |
| 2026-05-07 17:49 | 51.28325 | 6.76784 | 127 ft | 13 kts | 322° |
| 2026-05-07 17:49 | 51.28401 | 6.76684 | 125 ft | 14 kts | 308° |
| 2026-05-07 17:50 | 51.28383 | 6.76554 | 124 ft | 14 kts | 233° |
| 2026-05-07 17:50 | 51.28315 | 6.76412 | 122 ft | 16 kts | 233° |
| 2026-05-07 17:50 | 51.28242 | 6.76262 | 122 ft | 16 kts | 232° |
| 2026-05-07 17:50 | 51.28170 | 6.76105 | 119 ft | 18 kts | 233° |
| 2026-05-07 17:51 | 51.28087 | 6.75934 | 117 ft | 19 kts | 232° |
| 2026-05-07 17:51 | 51.28011 | 6.75773 | 118 ft | 17 kts | 233° |
| 2026-05-07 17:51 | 51.27943 | 6.75631 | 121 ft | 16 kts | 233° |
| 2026-05-07 17:51 | 51.27874 | 6.75485 | 122 ft | 15 kts | 233° |
| 2026-05-07 17:52 | 51.27843 | 6.75374 | 123 ft | 8 kts | 284° |
| 2026-05-07 17:52 | 51.27869 | 6.75327 | 123 ft | 2 kts | 333° |
| 2026-05-07 17:52 | 51.27871 | 6.75325 | 123 ft | 0 kts | 334° |
| 2026-05-07 17:54 | 51.27883 | 6.75317 | 122 ft | 6 kts | 335° |
| 2026-05-07 17:54 | 51.27945 | 6.75275 | 121 ft | 11 kts | 351° |
| 2026-05-07 17:54 | 51.28016 | 6.75317 | 120 ft | 7 kts | 44° |
| 2026-05-07 17:54 | 51.28023 | 6.75331 | 120 ft | 0 kts | 53° |
| 2026-05-07 17:55 | 51.28028 | 6.75342 | 120 ft | 8 kts | 53° |
| 2026-05-07 17:55 | 51.28213 | 6.75731 | 119 ft | 81 kts | 53° |
| 2026-05-07 17:55 | 51.28695 | 6.76748 | 125 ft | 144 kts | 53° |
| 2026-05-07 17:56 | 51.29375 | 6.78153 | 333 ft | 173 kts | 52° |
| 2026-05-07 17:56 | 51.30129 | 6.79687 | 1004 ft | 178 kts | 51° |
| 2026-05-07 17:56 | 51.30848 | 6.81183 | 1972 ft | 168 kts | 52° |
| 2026-05-07 17:56 | 51.31551 | 6.82680 | 2599 ft | 178 kts | 52° |
| 2026-05-07 17:57 | 51.32321 | 6.84326 | 3097 ft | 194 kts | 52° |
| 2026-05-07 17:57 | 51.32873 | 6.85505 | 3387 ft | 205 kts | 52° |
| 2026-05-07 17:57 | 51.34077 | 6.88133 | 3888 ft | 234 kts | 53° |
| 2026-05-07 17:57 | 51.34997 | 6.90432 | 4376 ft | 254 kts | 66° |
| 2026-05-07 17:58 | 51.35329 | 6.93244 | 4845 ft | 264 kts | 91° |
| 2026-05-07 17:58 | 51.35078 | 6.96167 | 4982 ft | 266 kts | 98° |
| 2026-05-07 17:58 | 51.34745 | 6.99088 | 4991 ft | 266 kts | 98° |
| 2026-05-07 17:58 | 51.34419 | 7.02014 | 5228 ft | 274 kts | 98° |
| 2026-05-07 17:59 | 51.34098 | 7.05026 | 6126 ft | 274 kts | 98° |
| 2026-05-07 17:59 | 51.33791 | 7.07988 | 7017 ft | 275 kts | 97° |
| 2026-05-07 17:59 | 51.33483 | 7.11022 | 7794 ft | 279 kts | 98° |
| 2026-05-07 17:59 | 51.33154 | 7.14093 | 8541 ft | 284 kts | 103° |
| 2026-05-07 18:00 | 51.32287 | 7.16912 | 9252 ft | 289 kts | 132° |
| 2026-05-07 18:00 | 51.30677 | 7.18775 | 10019 ft | 289 kts | 159° |
| 2026-05-07 18:00 | 51.28747 | 7.19680 | 10657 ft | 296 kts | 166° |
| 2026-05-07 18:00 | 51.26711 | 7.20513 | 11009 ft | 313 kts | 164° |
| 2026-05-07 18:01 | 51.24632 | 7.21814 | 11332 ft | 330 kts | 155° |
| 2026-05-07 18:01 | 51.22521 | 7.23488 | 11635 ft | 347 kts | 153° |
| 2026-05-07 18:01 | 51.20319 | 7.25268 | 11908 ft | 363 kts | 153° |
| 2026-05-07 18:01 | 51.18010 | 7.27101 | 12168 ft | 378 kts | 154° |
| 2026-05-07 18:02 | 51.13151 | 7.30855 | 13121 ft | 393 kts | 154° |
| 2026-05-07 18:02 | 51.10700 | 7.32722 | 13735 ft | 396 kts | 155° |
| 2026-05-07 18:02 | 51.08177 | 7.34634 | 14322 ft | 399 kts | 155° |
| 2026-05-07 18:03 | 51.05671 | 7.36524 | 14913 ft | 402 kts | 155° |
| 2026-05-07 18:03 | 51.03149 | 7.38423 | 15471 ft | 405 kts | 155° |
| 2026-05-07 18:03 | 51.00600 | 7.40337 | 16007 ft | 408 kts | 155° |
| 2026-05-07 18:03 | 50.98019 | 7.42273 | 16541 ft | 411 kts | 155° |
| 2026-05-07 18:04 | 50.95414 | 7.44222 | 17070 ft | 414 kts | 155° |
| 2026-05-07 18:04 | 50.92795 | 7.46180 | 17577 ft | 417 kts | 156° |
| 2026-05-07 18:04 | 50.90167 | 7.48142 | 18079 ft | 420 kts | 156° |
| 2026-05-07 18:04 | 50.87507 | 7.50117 | 18568 ft | 423 kts | 156° |
| 2026-05-07 18:05 | 50.84969 | 7.52514 | 19000 ft | 429 kts | 140° |
| 2026-05-07 18:05 | 50.82971 | 7.56146 | 19519 ft | 432 kts | 126° |
| 2026-05-07 18:05 | 50.81252 | 7.60128 | 19964 ft | 436 kts | 124° |
| 2026-05-07 18:05 | 50.79557 | 7.64150 | 20383 ft | 440 kts | 124° |
| 2026-05-07 18:06 | 50.77814 | 7.68193 | 20827 ft | 443 kts | 126° |
| 2026-05-07 18:06 | 50.76024 | 7.72243 | 21268 ft | 445 kts | 126° |
| 2026-05-07 18:06 | 50.74209 | 7.76269 | 21688 ft | 448 kts | 127° |
| 2026-05-07 18:06 | 50.72375 | 7.80277 | 22106 ft | 450 kts | 127° |
| 2026-05-07 18:07 | 50.70523 | 7.84294 | 22511 ft | 453 kts | 127° |
| 2026-05-07 18:07 | 50.68642 | 7.88348 | 22912 ft | 456 kts | 127° |
| 2026-05-07 18:07 | 50.66743 | 7.92429 | 23029 ft | 457 kts | 127° |
| 2026-05-07 18:07 | 50.64871 | 7.96437 | 23030 ft | 456 kts | 127° |
| 2026-05-07 18:08 | 50.62987 | 8.00466 | 22725 ft | 456 kts | 127° |
| 2026-05-07 18:08 | 50.61102 | 8.04490 | 22052 ft | 451 kts | 127° |
| 2026-05-07 18:08 | 50.59254 | 8.08427 | 21384 ft | 446 kts | 127° |
| 2026-05-07 18:08 | 50.57395 | 8.12378 | 20724 ft | 442 kts | 127° |
| 2026-05-07 18:09 | 50.55561 | 8.16273 | 20071 ft | 438 kts | 127° |
| 2026-05-07 18:09 | 50.53763 | 8.20086 | 19417 ft | 434 kts | 127° |
| 2026-05-07 18:09 | 50.51963 | 8.23898 | 18782 ft | 430 kts | 127° |
| 2026-05-07 18:09 | 50.50197 | 8.27632 | 18144 ft | 427 kts | 127° |
| 2026-05-07 18:10 | 50.48419 | 8.31387 | 17501 ft | 423 kts | 127° |
| 2026-05-07 18:10 | 50.46670 | 8.35074 | 16864 ft | 420 kts | 127° |
| 2026-05-07 18:10 | 50.44928 | 8.38742 | 16247 ft | 417 kts | 127° |
| 2026-05-07 18:10 | 50.43206 | 8.42363 | 15604 ft | 414 kts | 127° |
| 2026-05-07 18:11 | 50.41474 | 8.45998 | 14980 ft | 411 kts | 127° |
| 2026-05-07 18:11 | 50.40314 | 8.48431 | 14533 ft | 405 kts | 127° |
| 2026-05-07 18:11 | 50.38092 | 8.53086 | 13408 ft | 400 kts | 127° |
| 2026-05-07 18:11 | 50.36457 | 8.56508 | 12329 ft | 392 kts | 127° |
| 2026-05-07 18:12 | 50.34840 | 8.59886 | 11306 ft | 384 kts | 126° |
| 2026-05-07 18:12 | 50.33243 | 8.63217 | 10601 ft | 381 kts | 126° |
| 2026-05-07 18:12 | 50.31688 | 8.66461 | 10158 ft | 360 kts | 127° |
| 2026-05-07 18:12 | 50.30264 | 8.69439 | 10046 ft | 328 kts | 127° |
| 2026-05-07 18:13 | 50.28957 | 8.72166 | 10035 ft | 300 kts | 127° |
| 2026-05-07 18:13 | 50.27602 | 8.74595 | 10031 ft | 296 kts | 143° |
| 2026-05-07 18:13 | 50.25783 | 8.76021 | 10038 ft | 292 kts | 169° |
| 2026-05-07 18:13 | 50.23799 | 8.76096 | 10037 ft | 289 kts | 194° |
| 2026-05-07 18:14 | 50.21983 | 8.74815 | 10035 ft | 285 kts | 220° |
| 2026-05-07 18:14 | 50.20732 | 8.72435 | 10031 ft | 282 kts | 245° |
| 2026-05-07 18:14 | 50.19987 | 8.69575 | 10039 ft | 283 kts | 252° |
| 2026-05-07 18:14 | 50.19371 | 8.66692 | 10034 ft | 284 kts | 253° |
| 2026-05-07 18:15 | 50.18771 | 8.63766 | 10027 ft | 284 kts | 253° |
| 2026-05-07 18:15 | 50.18171 | 8.60819 | 10036 ft | 284 kts | 253° |
| 2026-05-07 18:15 | 50.17574 | 8.57877 | 10014 ft | 283 kts | 253° |
| 2026-05-07 18:15 | 50.16987 | 8.54969 | 10018 ft | 283 kts | 254° |
| 2026-05-07 18:16 | 50.16392 | 8.52024 | 10053 ft | 282 kts | 254° |
| 2026-05-07 18:16 | 50.15807 | 8.49121 | 10029 ft | 282 kts | 254° |
| 2026-05-07 18:16 | 50.15228 | 8.46241 | 10011 ft | 279 kts | 254° |
| 2026-05-07 18:16 | 50.14644 | 8.43338 | 9560 ft | 283 kts | 254° |
| 2026-05-07 18:17 | 50.14049 | 8.40381 | 8816 ft | 295 kts | 254° |
| 2026-05-07 18:17 | 50.13421 | 8.37289 | 8174 ft | 301 kts | 254° |
| 2026-05-07 18:17 | 50.12797 | 8.34255 | 7840 ft | 287 kts | 253° |
| 2026-05-07 18:17 | 50.12193 | 8.31339 | 7197 ft | 284 kts | 253° |
| 2026-05-07 18:18 | 50.11587 | 8.28427 | 6522 ft | 285 kts | 253° |
| 2026-05-07 18:18 | 50.10974 | 8.25502 | 5945 ft | 284 kts | 253° |
| 2026-05-07 18:18 | 50.10370 | 8.22623 | 5367 ft | 279 kts | 253° |
| 2026-05-07 18:18 | 50.09769 | 8.19768 | 5061 ft | 266 kts | 253° |
| 2026-05-07 18:19 | 50.09201 | 8.17084 | 5015 ft | 252 kts | 253° |
| 2026-05-07 18:19 | 50.08650 | 8.14488 | 5009 ft | 249 kts | 253° |
| 2026-05-07 18:19 | 50.08106 | 8.11928 | 5020 ft | 248 kts | 253° |
| 2026-05-07 18:19 | 50.07549 | 8.09402 | 5019 ft | 247 kts | 248° |
| 2026-05-07 18:20 | 50.06527 | 8.07300 | 5003 ft | 239 kts | 216° |
| 2026-05-07 18:20 | 50.05007 | 8.06369 | 5007 ft | 240 kts | 185° |
| 2026-05-07 18:20 | 50.03325 | 8.06381 | 5025 ft | 242 kts | 175° |
| 2026-05-07 18:20 | 50.01648 | 8.06613 | 5016 ft | 243 kts | 173° |
| 2026-05-07 18:21 | 49.99940 | 8.06887 | 5012 ft | 243 kts | 173° |
| 2026-05-07 18:21 | 49.98266 | 8.07161 | 5009 ft | 243 kts | 173° |
| 2026-05-07 18:21 | 49.96652 | 8.07831 | 4977 ft | 240 kts | 147° |
| 2026-05-07 18:21 | 49.95496 | 8.09651 | 4983 ft | 234 kts | 113° |
| 2026-05-07 18:22 | 49.95125 | 8.12075 | 5002 ft | 231 kts | 89° |
| 2026-05-07 18:22 | 49.95185 | 8.13721 | 4993 ft | 230 kts | 78° |
| 2026-05-07 18:22 | 49.95747 | 8.16732 | 4923 ft | 201 kts | 65° |
| 2026-05-07 18:22 | 49.96258 | 8.18597 | 4789 ft | 183 kts | 64° |
| 2026-05-07 18:23 | 49.96748 | 8.20398 | 4501 ft | 178 kts | 65° |
| 2026-05-07 18:23 | 49.97199 | 8.22160 | 4242 ft | 177 kts | 66° |
| 2026-05-07 18:23 | 49.97639 | 8.23967 | 3977 ft | 176 kts | 67° |
| 2026-05-07 18:23 | 49.98054 | 8.25727 | 3703 ft | 175 kts | 67° |
| 2026-05-07 18:24 | 49.98469 | 8.27516 | 3444 ft | 175 kts | 68° |
| 2026-05-07 18:24 | 49.98877 | 8.29277 | 3198 ft | 174 kts | 68° |
| 2026-05-07 18:24 | 49.99283 | 8.31024 | 2958 ft | 174 kts | 68° |
| 2026-05-07 18:24 | 49.99697 | 8.32799 | 2719 ft | 173 kts | 68° |
| 2026-05-07 18:25 | 50.00111 | 8.34562 | 2482 ft | 173 kts | 68° |
| 2026-05-07 18:25 | 50.00518 | 8.36289 | 2247 ft | 173 kts | 68° |
| 2026-05-07 18:25 | 50.00935 | 8.38056 | 2005 ft | 172 kts | 68° |
| 2026-05-07 18:25 | 50.01347 | 8.39793 | 1747 ft | 169 kts | 68° |
| 2026-05-07 18:26 | 50.01732 | 8.41421 | 1531 ft | 155 kts | 68° |
| 2026-05-07 18:26 | 50.02097 | 8.42950 | 1297 ft | 146 kts | 68° |
| 2026-05-07 18:26 | 50.02447 | 8.44424 | 1063 ft | 145 kts | 69° |
| 2026-05-07 18:26 | 50.02793 | 8.45887 | 862 ft | 141 kts | 69° |
| 2026-05-07 18:27 | 50.03130 | 8.47286 | 674 ft | 140 kts | 68° |
| 2026-05-07 18:27 | 50.03470 | 8.48717 | 497 ft | 139 kts | 69° |
| 2026-05-07 18:27 | 50.03802 | 8.50135 | 355 ft | 139 kts | 69° |
| 2026-05-07 18:27 | 50.04111 | 8.51413 | 360 ft | 108 kts | 68° |
| 2026-05-07 18:28 | 50.04314 | 8.52253 | 361 ft | 54 kts | 70° |
| 2026-05-07 18:28 | 50.04392 | 8.52661 | 364 ft | 29 kts | 84° |
| 2026-05-07 18:28 | 50.04375 | 8.52969 | 354 ft | 28 kts | 99° |
| 2026-05-07 18:28 | 50.04350 | 8.53216 | 350 ft | 17 kts | 96° |
| 2026-05-07 18:29 | 50.04371 | 8.53382 | 350 ft | 15 kts | 70° |
| 2026-05-07 18:29 | 50.04396 | 8.53547 | 351 ft | 15 kts | 82° |
| 2026-05-07 18:29 | 50.04409 | 8.53709 | 351 ft | 15 kts | 84° |
| 2026-05-07 18:29 | 50.04420 | 8.53875 | 352 ft | 16 kts | 84° |
| 2026-05-07 18:30 | 50.04432 | 8.54051 | 353 ft | 16 kts | 83° |
| 2026-05-07 18:30 | 50.04443 | 8.54224 | 353 ft | 16 kts | 83° |
| 2026-05-07 18:30 | 50.04453 | 8.54404 | 353 ft | 17 kts | 86° |
| 2026-05-07 18:30 | 50.04433 | 8.54571 | 352 ft | 15 kts | 111° |
| 2026-05-07 18:31 | 50.04378 | 8.54698 | 351 ft | 12 kts | 134° |
| 2026-05-07 18:31 | 50.04301 | 8.54779 | 350 ft | 13 kts | 155° |
| 2026-05-07 18:31 | 50.04214 | 8.54828 | 350 ft | 11 kts | 160° |
| 2026-05-07 18:31 | 50.04152 | 8.54862 | 350 ft | 7 kts | 159° |
| 2026-05-07 18:32 | 50.04121 | 8.54881 | 349 ft | 0 kts | 159° |
| 2026-05-07 18:32 | 50.04118 | 8.54882 | 349 ft | 0 kts | 159° |
| 2026-05-07 18:32 | 50.04112 | 8.54886 | 349 ft | 2 kts | 158° |
| 2026-05-07 18:32 | 50.04101 | 8.54892 | 348 ft | 0 kts | 159° |
| 2026-05-07 18:33 | 50.04084 | 8.54902 | 348 ft | 5 kts | 159° |
| 2026-05-07 18:33 | 50.04041 | 8.54929 | 347 ft | 7 kts | 147° |
| 2026-05-07 18:34 | 50.04022 | 8.55018 | 348 ft | 9 kts | 86° |
| 2026-05-07 18:34 | 50.04044 | 8.55127 | 351 ft | 17 kts | 70° |
| 2026-05-07 18:34 | 50.04105 | 8.55376 | 354 ft | 26 kts | 68° |
| 2026-05-07 18:34 | 50.04160 | 8.55602 | 354 ft | 18 kts | 69° |
| 2026-05-07 18:35 | 50.04210 | 8.55819 | 355 ft | 21 kts | 70° |
| 2026-05-07 18:35 | 50.04253 | 8.55999 | 356 ft | 13 kts | 68° |
| 2026-05-07 18:35 | 50.04313 | 8.56065 | 359 ft | 12 kts | 352° |
| 2026-05-07 18:35 | 50.04397 | 8.56029 | 361 ft | 12 kts | 354° |
| 2026-05-07 18:36 | 50.04451 | 8.56099 | 362 ft | 12 kts | 71° |
| 2026-05-07 18:36 | 50.04481 | 8.56233 | 362 ft | 10 kts | 71° |
| 2026-05-07 18:36 | 50.04498 | 8.56306 | 363 ft | 6 kts | 69° |
| 2026-05-07 18:36 | 50.04513 | 8.56367 | 363 ft | 5 kts | 68° |
| 2026-05-07 18:37 | 50.04537 | 8.56424 | 365 ft | 8 kts | 37° |
| 2026-05-07 18:37 | 50.04591 | 8.56468 | 365 ft | 9 kts | 25° |
| 2026-05-07 18:37 | 50.04633 | 8.56497 | 366 ft | 6 kts | 24° |
| 2026-05-07 18:37 | 50.04665 | 8.56519 | 366 ft | 4 kts | 23° |
| 2026-05-07 18:38 | 50.04699 | 8.56557 | 368 ft | 5 kts | 38° |
| 2026-05-07 18:38 | 50.04715 | 8.56603 | 369 ft | 5 kts | 97° |
| 2026-05-07 18:38 | 50.04700 | 8.56658 | 369 ft | 5 kts | 116° |
| 2026-05-07 18:38 | 50.04689 | 8.56695 | 370 ft | 2 kts | 114° |
| 2026-05-07 18:39 | 50.04686 | 8.56705 | 370 ft | 0 kts | 115° |